Latest Weather Observations for Maryborough

IDQ60801

Issued at 11:35 pm EST Friday 1 August 2014 (issued every 30 minutes, with the page automatically refreshed every 10 minutes)

About weather observations | Map of weather stations | Latest weather observations for QLD | Other Formats
Station Details ID: 040126 Name: MARYBOROUGH Lat: -25.52 Lon: 152.72 Height: 10.28 m
Data from the previous 72 hours. | See also: Recent months at Maryborough
Date/Time
EST
Temp
°C
App
Temp
°C
Dew
Point
Rel
Hum
%
Delta-T
°C
Wind Press
QNH
hPa
Press
MSL
hPa
Rain
since 9 am
mm
Dir
 
Spd
km/h
Gust
km/h
Spd
kts
Gust
kts
01/11:30pm 18.7 17.2 16.3 86 1.4 N 19 28 10 15 1015.8 - 0.0
01/11:00pm 19.0 17.4 16.6 86 1.4 N 20 26 11 14 1016.0 - 0.0
01/10:30pm 18.9 17.4 16.3 85 1.6 N 19 24 10 13 1016.2 - 0.0
01/10:00pm 18.3 17.6 16.3 88 1.2 N 15 19 8 10 1016.3 - 0.0
01/09:30pm 18.2 17.8 16.2 88 1.2 N 13 19 7 10 1016.1 - 0.0
01/09:00pm 17.6 16.5 15.4 87 1.3 N 15 20 8 11 1016.2 1016.2 0.0
01/08:30pm 17.5 17.1 15.3 87 1.3 N 11 15 6 8 1016.0 - 0.0
01/08:00pm 17.9 17.2 15.5 86 1.4 N 13 17 7 9 1015.6 - 0.0
01/07:30pm 17.2 16.9 14.5 84 1.6 NNE 9 13 5 7 1015.2 - 0.0
01/07:00pm 18.0 17.4 14.5 80 2.0 NNE 11 13 6 7 1015.0 - 0.0
01/06:30pm 18.7 17.9 14.0 74 2.7 N 11 15 6 8 1014.5 - 0.0
01/06:00pm 19.7 18.8 13.6 68 3.5 N 11 15 6 8 1014.2 1014.2 0.0
01/05:30pm 20.8 19.4 13.5 63 4.2 N 13 17 7 9 1014.1 - 0.0
01/05:00pm 22.0 19.5 12.3 54 5.5 N 17 22 9 12 1013.7 - 0.0
01/04:30pm 23.8 20.5 10.8 44 7.2 N 19 26 10 14 1013.4 - 0.0
01/04:00pm 24.9 21.0 9.6 38 8.4 N 20 28 11 15 1013.3 - 0.0
01/03:30pm 24.3 20.2 8.7 37 8.4 N 20 28 11 15 1013.2 - 0.0
01/03:00pm 24.8 22.4 12.7 47 7.0 N 17 26 9 14 1013.3 1013.3 0.0
01/02:30pm 24.9 21.9 12.5 46 7.1 N 20 30 11 16 1013.4 - 0.0
01/02:00pm 25.5 22.8 13.0 46 7.3 NNE 19 24 10 13 1013.6 - 0.0
01/01:30pm 25.6 24.1 14.1 49 6.8 N 15 24 8 13 1013.9 - 0.0
01/01:00pm 25.9 23.3 13.1 45 7.5 NNW 19 30 10 16 1014.4 - 0.0
01/12:30pm 26.9 23.1 9.7 34 9.5 NNW 20 32 11 17 1014.8 - 0.0
01/12:00pm 25.9 23.3 13.1 45 7.5 NW 19 26 10 14 1015.6 1015.6 0.0
01/11:30am 26.0 23.6 14.5 49 6.9 NNW 20 28 11 15 1016.1 - 0.0
01/11:00am 25.0 22.8 14.5 52 6.2 NNW 19 26 10 14 1016.7 - 0.0
01/10:30am 24.3 21.3 13.8 52 6.2 NNW 22 30 12 16 1017.3 - 0.0
01/10:00am 23.5 20.8 15.5 60 4.8 NW 24 32 13 17 1017.6 - 0.0
01/09:30am 22.5 21.0 16.3 68 3.8 N 19 28 10 15 1017.5 - 0.0
01/09:00am 18.4 17.6 15.1 81 1.9 N 13 19 7 10 1017.5 1017.5 0.0
01/08:43am 16.9 17.2 15.1 89 1.0 SW 7 9 4 5 1018.0 - 0.0
01/08:34am 15.7 16.7 14.2 91 0.9 N 2 7 1 4 1018.0 - 0.0
01/08:30am 15.6 17.0 14.5 93 0.6 CALM 0 0 0 0 1018.0 - 0.0
01/08:00am 13.5 14.5 13.3 99 0.1 CALM 0 0 0 0 1018.1 - 0.0
01/07:30am 12.4 13.1 12.2 99 0.1 CALM 0 6 0 3 1018.0 - 0.0
01/07:23am 12.0 12.6 11.8 99 0.1 CALM 0 0 0 0 1018.0 - 0.0
01/07:15am 11.6 12.0 11.3 98 0.2 CALM 0 0 0 0 1017.9 - 0.0
01/07:00am 10.5 10.6 10.0 97 0.3 CALM 0 0 0 0 1017.8 - 0.0
01/06:30am 10.0 9.8 9.2 95 0.4 CALM 0 0 0 0 1017.7 - 0.0
01/06:00am 10.6 10.7 10.0 96 0.3 N 0 0 0 0 1017.5 1017.5 0.0
01/05:40am 10.7 10.8 10.2 97 0.3 CALM 0 0 0 0 1017.3 - 0.0
01/05:30am 11.1 11.3 10.6 97 0.3 CALM 0 0 0 0 1017.2 - 0.0
01/05:00am 11.5 11.8 11.0 97 0.3 CALM 0 0 0 0 1017.0 - 0.0
01/04:30am 11.4 11.6 10.6 95 0.4 CALM 0 0 0 0 1016.9 - 0.0
01/04:00am 12.4 12.9 11.6 95 0.4 CALM 0 0 0 0 1016.9 - 0.0
01/03:31am 13.3 14.2 12.8 97 0.3 CALM 0 0 0 0 1017.0 - 0.0
01/03:30am 13.4 14.3 12.8 96 0.3 CALM 0 0 0 0 1017.0 - 0.0
01/03:00am 13.1 13.9 12.5 96 0.3 CALM 0 0 0 0 1017.3 1017.3 0.0
01/02:30am 12.8 13.4 12.0 95 0.4 CALM 0 0 0 0 1017.5 - 0.0
01/02:00am 13.0 13.8 12.5 97 0.3 CALM 0 0 0 0 1017.7 - 0.0
01/01:33am 12.7 13.4 12.1 96 0.3 CALM 0 0 0 0 1018.0 - 0.0
01/01:30am 12.6 13.2 11.8 95 0.4 CALM 0 0 0 0 1018.0 - 0.0
01/01:08am 12.6 13.2 11.8 95 0.4 CALM 0 0 0 0 1018.1 - 0.0
01/01:06am 12.4 12.9 11.5 94 0.5 CALM 0 0 0 0 1018.1 - 0.0
01/01:00am 12.4 12.9 11.6 95 0.4 CALM 0 0 0 0 1018.2 - 0.0
01/12:50am 12.4 12.9 11.5 94 0.5 CALM 0 0 0 0 1018.3 - 0.0
01/12:38am 12.3 12.7 11.4 94 0.5 CALM 0 0 0 0 1018.3 - 0.0
01/12:30am 12.4 12.9 11.6 95 0.4 CALM 0 0 0 0 1018.4 - 0.0
01/12:00am 13.1 12.8 12.6 97 0.3 N 6 6 3 3 1018.6 1018.6 0.0
 
Date/Time
EST
Temp
°C
App
Temp
°C
Dew
Point
Rel
Hum
%
Delta-T
°C
Wind Press
QNH
hPa
Press
MSL
hPa
Rain
since 9 am
mm
Dir
 
Spd
km/h
Gust
km/h
Spd
kts
Gust
kts
31/11:30pm 13.3 13.0 12.7 96 0.3 N 6 7 3 4 1018.7 - 0.0
31/11:00pm 12.9 13.5 12.0 94 0.5 CALM 0 0 0 0 1018.5 - 0.0
31/10:35pm 13.2 13.9 12.1 93 0.6 CALM 0 0 0 0 1018.5 - 0.0
31/10:30pm 13.2 13.9 12.1 93 0.6 CALM 0 0 0 0 1018.5 - 0.0
31/10:00pm 13.5 13.6 11.6 88 1.0 N 2 6 1 3 1018.5 - 0.0
31/09:30pm 14.2 13.6 12.4 89 1.0 N 7 9 4 5 1018.4 - 0.0
31/09:00pm 15.0 16.1 13.5 91 0.8 CALM 0 0 0 0 1018.4 1018.4 0.0
31/08:30pm 14.6 13.6 11.0 79 1.9 N 7 9 4 5 1018.2 - 0.0
31/08:00pm 17.4 17.0 13.1 76 2.4 N 7 7 4 4 1017.9 - 0.0
31/07:30pm 18.4 18.4 13.7 74 2.7 N 6 9 3 5 1018.0 - 0.0
31/07:00pm 18.7 18.5 13.6 72 2.9 N 7 9 4 5 1017.9 - 0.0
31/06:30pm 19.5 19.0 13.7 69 3.3 N 9 13 5 7 1017.5 - 0.0
31/06:00pm 19.9 18.4 13.1 65 3.9 N 13 20 7 11 1017.3 1017.3 0.0
31/05:30pm 20.6 19.0 12.8 61 4.4 N 13 20 7 11 1017.2 - 0.0
31/05:00pm 21.2 19.5 12.3 57 5.0 N 13 20 7 11 1017.1 - 0.0
31/04:30pm 21.8 18.8 11.8 53 5.6 N 19 28 10 15 1017.0 - 0.0
31/04:00pm 22.4 19.0 10.5 47 6.5 NNE 19 30 10 16 1016.8 - 0.0
31/03:30pm 23.0 19.3 9.4 42 7.3 NNE 19 28 10 15 1016.7 - 0.0
31/03:00pm 24.1 20.1 8.1 36 8.5 N 19 26 10 14 1016.7 1016.7 0.0
31/02:30pm 25.0 20.8 8.1 34 9.0 N 20 28 11 15 1016.8 - 0.0
31/02:00pm 23.9 20.7 8.3 37 8.3 N 15 22 8 12 1017.2 - 0.0
31/01:30pm 25.3 23.3 8.7 35 9.0 N 9 13 5 7 1017.5 - 0.0
31/01:00pm 24.9 21.6 8.0 34 9.0 N 15 22 8 12 1018.0 - 0.0
31/12:30pm 24.5 22.5 7.2 33 9.1 N 7 13 4 7 1018.8 - 0.0
31/12:00pm 24.1 23.0 11.8 46 6.9 NNW 9 15 5 8 1019.4 1019.4 0.0
31/11:30am 23.2 22.5 13.1 53 5.8 NNW 9 17 5 9 1020.2 - 0.0
31/11:00am 22.1 21.9 13.7 59 4.9 NNE 7 9 4 5 1020.9 - 0.0
31/10:30am 21.3 21.3 13.7 62 4.4 NNW 6 9 3 5 1021.6 - 0.0
31/10:00am 19.8 20.1 14.4 71 3.1 ESE 6 7 3 4 1021.9 - 0.0
31/09:30am 18.3 19.9 14.8 80 2.0 CALM 0 7 0 4 1022.3 - 0.0
31/09:00am 15.0 15.4 13.7 92 0.7 S 4 7 2 4 1022.6 1022.6 0.2
31/08:59am 14.9 15.3 13.6 92 0.7 S 4 7 2 4 1022.6 - 0.2
31/08:42am 13.4 13.2 12.9 97 0.3 S 6 7 3 4 1022.5 - 0.2
31/08:30am 12.7 12.3 12.5 99 0.1 S 6 7 3 4 1022.4 - 0.0
31/08:00am 11.2 10.4 11.0 99 0.1 S 6 9 3 5 1022.2 - 0.0
31/07:30am 10.3 9.2 10.1 99 0.1 S 6 7 3 4 1021.8 - 0.0
31/07:00am 9.6 8.4 9.5 99 0.0 S 6 6 3 3 1021.5 - 0.0
31/06:30am 9.5 8.1 9.4 99 0.0 S 7 7 4 4 1021.2 - 0.0
31/06:00am 9.9 9.9 9.8 99 0.0 CALM 0 0 0 0 1020.9 1020.9 0.0
31/05:30am 9.3 9.1 9.0 98 0.1 CALM 0 0 0 0 1020.8 - 0.0
31/05:00am 9.7 9.6 9.4 98 0.1 CALM 0 0 0 0 1020.6 - 0.0
31/04:30am 9.6 8.8 9.5 99 0.0 S 4 6 2 3 1020.5 - 0.0
31/04:00am 10.0 8.9 9.9 99 0.1 S 6 7 3 4 1020.5 - 0.0
31/03:30am 9.8 9.8 9.7 99 0.1 CALM 0 0 0 0 1020.4 - 0.0
31/03:00am 9.4 7.5 9.1 98 0.1 S 9 13 5 7 1020.6 1020.6 0.0
31/02:30am 9.3 9.1 9.0 98 0.1 CALM 0 0 0 0 1020.6 - 0.0
31/02:00am 8.7 8.3 8.1 96 0.3 CALM 0 0 0 0 1020.8 - 0.0
31/01:41am 8.7 8.2 7.9 95 0.4 CALM 0 0 0 0 1020.9 - 0.0
31/01:30am 9.2 8.9 8.6 96 0.3 CALM 0 0 0 0 1021.0 - 0.0
31/01:00am 10.1 10.0 9.5 96 0.3 CALM 0 0 0 0 1021.2 - 0.0
31/12:30am 11.3 11.6 11.0 98 0.2 CALM 0 0 0 0 1021.3 - 0.0
31/12:00am 12.2 10.7 12.0 99 0.1 S 11 11 6 6 1021.4 1021.4 0.0
 
Date/Time
EST
Temp
°C
App
Temp
°C
Dew
Point
Rel
Hum
%
Delta-T
°C
Wind Press
QNH
hPa
Press
MSL
hPa
Rain
since 9 am
mm
Dir
 
Spd
km/h
Gust
km/h
Spd
kts
Gust
kts
30/11:30pm 12.2 9.9 11.9 98 0.2 S 15 17 8 9 1021.5 - 0.0
30/11:13pm 10.8 10.9 10.2 96 0.3 CALM 0 0 0 0 1021.2 - 0.0
30/11:00pm 10.7 10.7 9.9 95 0.4 CALM 0 0 0 0 1021.3 - 0.0
30/10:30pm 11.3 10.7 10.4 94 0.5 NNE 4 6 2 3 1021.3 - 0.0
30/10:00pm 11.1 9.9 9.7 91 0.7 NNE 6 7 3 4 1021.4 - 0.0
30/09:30pm 11.5 10.4 10.1 91 0.7 NNE 6 7 3 4 1021.4 - 0.0
30/09:00pm 12.6 11.9 11.5 93 0.6 NNE 6 7 3 4 1021.4 1021.4 0.0
30/08:30pm 12.8 11.9 10.7 87 1.1 NNE 6 7 3 4 1021.2 - 0.0
30/08:00pm 13.7 12.9 11.6 87 1.1 NNE 7 9 4 5 1021.1 - 0.0
30/07:30pm 15.7 14.8 12.5 81 1.8 NNE 9 13 5 7 1020.9 - 0.0
30/07:00pm 15.4 14.3 10.8 74 2.4 NNE 7 9 4 5 1020.7 - 0.0
30/06:30pm 17.1 15.8 11.4 69 3.1 NNE 9 13 5 7 1020.4 - 0.0
30/06:00pm 17.9 16.5 10.8 63 3.8 NNE 9 15 5 8 1020.1 1020.1 0.0
30/05:30pm 18.9 16.9 10.2 57 4.7 N 11 17 6 9 1019.6 - 0.0
30/05:00pm 19.8 17.2 9.4 51 5.5 N 13 17 7 9 1019.3 - 0.0
30/04:30pm 21.6 18.9 8.8 44 6.8 N 13 20 7 11 1019.2 - 0.0
30/04:00pm 22.6 18.4 7.6 38 7.8 N 19 30 10 16 1018.9 - 0.0
30/03:30pm 23.5 19.6 9.5 41 7.6 N 20 28 11 15 1018.5 - 0.0
30/03:00pm 24.1 20.4 10.0 41 7.7 N 20 28 11 15 1018.6 1018.6 0.0
30/02:30pm 25.1 22.1 10.6 40 8.1 N 17 24 9 13 1018.8 - 0.0
30/02:00pm 25.1 22.1 9.4 37 8.6 N 15 22 8 12 1019.1 - 0.0
30/01:30pm 24.6 21.1 7.3 33 9.1 NNW 15 22 8 12 1019.6 - 0.0
30/01:00pm 24.8 21.9 8.3 35 8.8 N 13 20 7 11 1020.1 - 0.0
30/12:30pm 24.4 21.9 8.4 36 8.5 WNW 11 20 6 11 1020.7 - 0.0
30/12:00pm 24.2 21.8 10.1 41 7.7 NNW 13 22 7 12 1021.5 1021.5 0.0
30/11:30am 23.2 20.4 9.9 43 7.3 NW 15 22 8 12 1022.2 - 0.0
30/11:00am 22.6 18.9 9.4 43 7.1 NW 19 24 10 13 1022.7 - 0.0
30/10:30am 22.6 19.6 12.0 51 6.0 NNW 19 26 10 14 1023.1 - 0.0
30/10:00am 20.1 18.5 12.8 63 4.1 NNW 13 19 7 10 1023.6 - 0.0
30/09:30am 16.7 16.2 12.8 78 2.2 N 7 9 4 5 1023.9 - 0.0
30/09:00am 15.2 15.2 13.6 90 0.9 NNE 6 11 3 6 1023.9 1023.9 0.0
30/08:30am 13.0 13.7 12.1 94 0.5 CALM 0 6 0 3 1024.0 - 0.0
30/08:15am 11.8 11.9 11.5 98 0.2 N 2 6 1 3 1024.0 - 0.0
30/08:08am 11.4 11.0 11.2 99 0.1 N 4 7 2 4 1024.0 - 0.0
30/08:00am 11.0 10.5 10.8 99 0.1 N 4 7 2 4 1024.0 - 0.0
30/07:30am 9.7 8.9 9.6 99 0.0 N 4 7 2 4 1023.7 - 0.0
30/07:00am 9.2 8.3 9.1 99 0.0 N 4 7 2 4 1023.5 - 0.0
30/06:30am 9.0 7.4 8.9 99 0.0 N 7 9 4 5 1023.3 - 0.0
30/06:00am 8.4 7.2 8.1 98 0.1 N 4 9 2 5 1022.8 1022.8 0.0
30/05:30am 8.3 7.8 8.0 98 0.1 CALM 0 0 0 0 1022.5 - 0.0
30/05:00am 8.1 7.6 7.8 98 0.1 CALM 0 0 0 0 1022.1 - 0.0
30/04:30am 7.9 7.3 7.6 98 0.1 CALM 0 0 0 0 1021.9 - 0.0
30/04:00am 8.0 7.5 7.7 98 0.1 CALM 0 0 0 0 1021.9 - 0.0
30/03:30am 8.2 7.7 7.9 98 0.1 CALM 0 0 0 0 1021.8 - 0.0
30/03:00am 8.2 7.7 7.8 97 0.2 CALM 0 0 0 0 1021.7 1021.7 0.0
30/02:30am 8.2 7.6 7.6 96 0.3 CALM 0 0 0 0 1021.7 - 0.0
30/02:00am 8.2 7.6 7.6 96 0.3 CALM 0 0 0 0 1021.7 - 0.0
30/01:44am 8.2 7.6 7.4 95 0.4 CALM 0 0 0 0 1021.7 - 0.0
30/01:30am 8.3 7.7 7.4 94 0.4 CALM 0 0 0 0 1021.8 - 0.0
30/01:00am 9.4 9.1 8.8 96 0.3 CALM 0 0 0 0 1021.7 - 0.0
30/12:30am 9.8 8.9 9.3 97 0.2 N 4 6 2 3 1021.8 - 0.0
30/12:00am 9.6 8.2 8.8 95 0.4 N 6 7 3 4 1021.8 1021.8 0.0

Other Formats:

Comma delimited format used in spreadsheet applications
http://www.bom.gov.au/fwo/IDQ60801/IDQ60801.94567.axf

JavaScript Object Notation format (JSON) in row-major order
http://www.bom.gov.au/fwo/IDQ60801/IDQ60801.94567.json